createdAt,value
2022-11-26T00:03:56.874Z,15.50
2022-11-26T00:08:01.133Z,15.50
2022-11-26T00:12:16.513Z,15.50
2022-11-26T00:16:18.729Z,15.50
2022-11-26T00:20:24.197Z,15.50
2022-11-26T00:24:28.027Z,15.50
2022-11-26T00:28:38.115Z,15.50
2022-11-26T00:32:39.753Z,15.50
2022-11-26T00:36:43.986Z,15.50
2022-11-26T00:40:46.014Z,15.60
2022-11-26T00:44:47.684Z,15.50
2022-11-26T00:48:49.881Z,15.50
2022-11-26T00:52:54.754Z,15.50
2022-11-26T00:56:56.415Z,15.50
2022-11-26T01:01:00.091Z,15.50
2022-11-26T01:05:01.777Z,15.50
2022-11-26T01:09:07.750Z,15.50
2022-11-26T01:13:10.939Z,15.50
2022-11-26T01:17:12.619Z,15.50
2022-11-26T01:21:14.692Z,15.50
2022-11-26T01:25:16.504Z,15.50
2022-11-26T01:29:19.924Z,15.50
2022-11-26T01:33:21.533Z,15.50
2022-11-26T01:37:23.285Z,15.50
2022-11-26T01:41:47.043Z,15.50
2022-11-26T01:45:48.742Z,15.50
2022-11-26T01:50:27.805Z,15.50
2022-11-26T01:54:30.196Z,15.50
2022-11-26T01:58:40.165Z,15.50
2022-11-26T02:02:42.422Z,15.50
2022-11-26T02:06:46.671Z,15.50
2022-11-26T02:10:51.012Z,15.50
2022-11-26T02:14:52.729Z,15.50
2022-11-26T02:19:25.047Z,15.50
2022-11-26T02:23:55.819Z,15.50
2022-11-26T02:28:35.289Z,15.50
2022-11-26T02:33:13.040Z,15.50
2022-11-26T02:37:20.317Z,15.50
2022-11-26T02:41:21.939Z,15.50
2022-11-26T02:45:31.060Z,15.50
2022-11-26T02:49:34.555Z,15.50
2022-11-26T02:53:38.837Z,15.50
2022-11-26T02:57:51.896Z,15.50
2022-11-26T03:02:24.748Z,15.50
2022-11-26T03:06:29.998Z,15.50
2022-11-26T03:10:32.116Z,15.50
2022-11-26T03:14:33.863Z,15.50
2022-11-26T03:18:35.452Z,15.50
2022-11-26T03:22:37.327Z,15.50
2022-11-26T03:26:39.065Z,15.50
2022-11-26T03:30:40.775Z,15.50
2022-11-26T03:34:43.015Z,15.50
2022-11-26T03:38:44.608Z,15.50
2022-11-26T03:42:46.263Z,15.50
2022-11-26T03:46:47.886Z,15.50
2022-11-26T03:50:49.684Z,15.50
2022-11-26T03:54:51.713Z,15.50
2022-11-26T03:58:53.367Z,15.50
2022-11-26T04:02:55.198Z,15.50
2022-11-26T04:06:57.335Z,15.50
2022-11-26T04:10:59.241Z,15.50
2022-11-26T04:15:00.960Z,15.50
2022-11-26T04:19:02.592Z,15.50
2022-11-26T04:23:04.280Z,15.50
2022-11-26T04:27:06.024Z,15.50
2022-11-26T04:31:07.712Z,15.50
2022-11-26T04:35:09.622Z,15.50
2022-11-26T04:39:12.555Z,15.50
2022-11-26T04:43:14.348Z,15.50
2022-11-26T04:47:16.016Z,15.50
2022-11-26T04:51:17.660Z,15.50
2022-11-26T04:55:19.424Z,15.50
2022-11-26T04:59:21.109Z,15.50
2022-11-26T05:03:22.931Z,15.50
2022-11-26T05:07:24.655Z,15.50
2022-11-26T05:11:26.562Z,15.50
2022-11-26T05:15:28.208Z,15.50
2022-11-26T05:19:29.829Z,15.50
2022-11-26T05:23:31.422Z,15.50
2022-11-26T05:27:33.147Z,15.50
2022-11-26T05:31:34.784Z,15.50
2022-11-26T05:35:37.982Z,15.50
2022-11-26T05:39:39.580Z,15.50
2022-11-26T05:43:41.195Z,15.50
2022-11-26T05:47:43.284Z,15.50
2022-11-26T05:51:44.974Z,15.50
2022-11-26T05:55:46.915Z,15.50
2022-11-26T05:59:49.217Z,15.50
2022-11-26T06:03:50.971Z,15.50
2022-11-26T06:07:52.733Z,15.50
2022-11-26T06:11:54.453Z,15.50
2022-11-26T06:15:56.524Z,15.50
2022-11-26T06:19:58.340Z,15.50
2022-11-26T06:24:00.079Z,15.50
2022-11-26T06:28:02.015Z,15.50
2022-11-26T06:32:03.802Z,15.50
2022-11-26T06:36:06.264Z,15.60
2022-11-26T06:40:09.183Z,15.60
2022-11-26T06:44:10.856Z,15.60
2022-11-26T06:48:12.605Z,15.60
2022-11-26T06:52:14.458Z,15.60
2022-11-26T06:56:19.123Z,15.60
2022-11-26T07:00:21.931Z,15.60
2022-11-26T07:04:23.742Z,15.60
2022-11-26T07:08:26.025Z,15.60
2022-11-26T07:12:27.888Z,15.60
2022-11-26T07:16:30.058Z,15.60
2022-11-26T07:20:31.683Z,15.60
2022-11-26T07:24:33.338Z,15.60
2022-11-26T07:28:35.684Z,15.60
2022-11-26T07:32:37.383Z,15.60
2022-11-26T07:36:43.021Z,15.60
2022-11-26T07:40:44.686Z,15.60
2022-11-26T07:44:49.069Z,15.60
2022-11-26T07:48:51.204Z,15.60
2022-11-26T07:52:52.934Z,15.60
2022-11-26T07:56:54.628Z,15.60
2022-11-26T08:00:56.231Z,15.60
2022-11-26T08:04:57.792Z,15.60
2022-11-26T08:09:02.112Z,15.60
2022-11-26T08:13:04.270Z,15.60
2022-11-26T08:17:05.902Z,15.60
2022-11-26T08:21:07.864Z,15.60
2022-11-26T08:25:09.929Z,15.60
2022-11-26T08:29:13.011Z,15.60
2022-11-26T08:33:15.681Z,15.60
2022-11-26T08:37:17.322Z,15.60
2022-11-26T08:41:19.047Z,15.60
2022-11-26T08:45:20.650Z,15.60
2022-11-26T08:49:22.276Z,15.60
2022-11-26T08:53:23.911Z,15.60
2022-11-26T08:57:25.679Z,15.60
2022-11-26T09:01:29.566Z,15.60
2022-11-26T09:05:31.882Z,15.60
2022-11-26T09:09:33.800Z,15.60
2022-11-26T09:13:35.410Z,15.60
2022-11-26T09:17:37.188Z,15.60
2022-11-26T09:21:39.004Z,15.60
2022-11-26T09:25:41.758Z,15.60
2022-11-26T09:29:43.501Z,15.60
2022-11-26T09:33:45.896Z,15.60
2022-11-26T09:37:51.620Z,15.60
2022-11-26T09:42:07.629Z,15.60
2022-11-26T09:46:12.165Z,15.60
2022-11-26T09:50:13.870Z,15.70
2022-11-26T09:54:22.577Z,15.70
2022-11-26T09:58:40.025Z,15.70
2022-11-26T10:02:41.683Z,15.70
2022-11-26T10:06:55.147Z,15.70
2022-11-26T10:11:14.463Z,15.70
2022-11-26T10:15:26.697Z,15.70
2022-11-26T10:19:57.514Z,15.70
2022-11-26T10:24:14.063Z,15.70
2022-11-26T10:28:30.683Z,15.70
2022-11-26T10:32:43.892Z,15.70
2022-11-26T10:36:47.194Z,15.70
2022-11-26T10:40:48.820Z,15.70
2022-11-26T10:44:54.655Z,15.70
2022-11-26T10:49:16.894Z,15.70
2022-11-26T10:53:22.279Z,15.70
2022-11-26T10:57:24.058Z,15.70
2022-11-26T11:01:26.807Z,15.80
2022-11-26T11:05:29.279Z,15.80
2022-11-26T11:09:37.382Z,15.80
2022-11-26T11:13:44.307Z,15.90
2022-11-26T11:17:53.370Z,15.90
2022-11-26T11:21:55.175Z,16.00
2022-11-26T11:25:58.597Z,16.00
2022-11-26T11:30:02.050Z,16.10
2022-11-26T11:34:21.327Z,16.10
2022-11-26T11:38:25.959Z,16.10
2022-11-26T11:42:32.267Z,16.00
2022-11-26T11:47:06.344Z,16.00
2022-11-26T11:51:35.959Z,16.00
2022-11-26T11:56:08.297Z,15.90
2022-11-26T12:00:24.148Z,15.90
2022-11-26T12:04:44.557Z,15.90
2022-11-26T12:09:30.428Z,15.80
2022-11-26T12:13:39.999Z,15.80
2022-11-26T12:18:06.713Z,15.80
2022-11-26T12:22:14.345Z,15.80
2022-11-26T12:26:24.771Z,15.80
2022-11-26T12:30:39.905Z,15.80
2022-11-26T12:34:49.770Z,15.80
2022-11-26T12:38:54.782Z,15.80
2022-11-26T12:43:09.679Z,15.80
2022-11-26T12:47:38.141Z,15.80
2022-11-26T12:51:57.648Z,15.80
2022-11-26T12:56:09.421Z,15.80
2022-11-26T13:00:26.117Z,15.80
2022-11-26T13:04:37.723Z,15.70
2022-11-26T13:08:54.066Z,15.70
2022-11-26T13:13:07.009Z,15.70
2022-11-26T13:17:14.209Z,15.70
2022-11-26T13:21:37.413Z,15.70
2022-11-26T13:26:03.820Z,15.70
2022-11-26T13:30:24.011Z,15.70
2022-11-26T13:34:57.941Z,15.70
2022-11-26T13:39:14.665Z,15.70
2022-11-26T13:43:49.425Z,15.70
2022-11-26T13:47:56.786Z,15.70
2022-11-26T13:52:11.194Z,15.70
2022-11-26T13:56:13.811Z,15.70
2022-11-26T14:00:44.393Z,15.70
2022-11-26T14:04:49.029Z,15.70
2022-11-26T14:08:54.210Z,15.70
2022-11-26T14:13:01.862Z,15.70
2022-11-26T14:17:15.953Z,15.70
2022-11-26T14:21:21.509Z,15.70
2022-11-26T14:25:49.308Z,15.70
2022-11-26T14:30:02.416Z,15.70
2022-11-26T14:34:33.648Z,15.70
2022-11-26T14:38:35.320Z,15.80
2022-11-26T14:42:41.489Z,15.80
2022-11-26T14:46:44.456Z,15.80
2022-11-26T14:50:46.281Z,15.80
2022-11-26T14:54:51.746Z,15.80
2022-11-26T14:59:01.633Z,15.90
2022-11-26T15:56:57.912Z,16.00
2022-11-26T16:03:03.746Z,16.10
2022-11-26T16:07:19.846Z,16.10
2022-11-26T16:11:23.128Z,16.10
2022-11-26T16:15:26.703Z,16.10
2022-11-26T16:19:30.278Z,16.00
2022-11-26T16:23:32.058Z,16.00
2022-11-26T16:27:34.404Z,15.90
2022-11-26T16:31:36.396Z,15.80
2022-11-26T16:35:46.717Z,15.80
2022-11-26T16:39:50.445Z,15.70
2022-11-26T16:43:52.265Z,15.70
2022-11-26T16:47:55.130Z,15.60
2022-11-26T16:51:56.721Z,15.60
2022-11-26T16:55:58.416Z,15.60
2022-11-26T17:00:03.655Z,15.60
2022-11-26T17:04:05.435Z,15.60
2022-11-26T17:08:11.923Z,15.50
2022-11-26T17:12:18.935Z,15.50
2022-11-26T17:16:22.713Z,15.50
2022-11-26T17:20:25.595Z,15.50
2022-11-26T17:24:31.349Z,15.50
2022-11-26T17:28:33.276Z,15.50
2022-11-26T17:32:35.082Z,15.50
2022-11-26T17:36:37.236Z,15.50
2022-11-26T17:40:38.869Z,15.50
2022-11-26T17:44:40.871Z,15.40
2022-11-26T17:48:42.810Z,15.50
2022-11-26T17:52:44.610Z,15.40
2022-11-26T17:56:46.266Z,15.50
2022-11-26T18:00:47.981Z,15.40
2022-11-26T18:04:49.655Z,15.40
2022-11-26T18:08:51.299Z,15.40
2022-11-26T18:12:54.062Z,15.40
2022-11-26T18:16:55.949Z,15.40
2022-11-26T18:20:57.757Z,15.50
2022-11-26T18:24:59.847Z,15.40
2022-11-26T18:29:02.434Z,15.40
2022-11-26T18:33:04.114Z,15.40
2022-11-26T18:37:05.979Z,15.40
2022-11-26T18:41:08.257Z,15.40
2022-11-26T18:45:13.301Z,15.40
2022-11-26T18:49:15.287Z,15.40
2022-11-26T18:53:16.912Z,15.40
2022-11-26T18:57:18.522Z,15.40
2022-11-26T19:01:28.895Z,15.40
2022-11-26T19:05:30.500Z,15.40
2022-11-26T19:09:32.154Z,15.40
2022-11-26T19:13:33.729Z,15.40
2022-11-26T19:17:35.539Z,15.40
2022-11-26T19:21:37.325Z,15.40
2022-11-26T19:25:39.002Z,15.40
2022-11-26T19:29:40.796Z,15.40
2022-11-26T19:33:43.921Z,15.40
2022-11-26T19:37:45.995Z,15.40
2022-11-26T19:41:47.567Z,15.40
2022-11-26T19:45:49.253Z,15.40
2022-11-26T19:49:50.904Z,15.40
2022-11-26T19:53:54.882Z,15.40
2022-11-26T19:57:56.714Z,15.40
2022-11-26T20:01:58.431Z,15.40
2022-11-26T20:06:06.021Z,15.40
2022-11-26T20:10:08.271Z,15.40
2022-11-26T20:14:10.602Z,15.40
2022-11-26T20:18:13.080Z,15.40
2022-11-26T20:22:14.690Z,15.40
2022-11-26T20:26:22.670Z,15.40
2022-11-26T20:30:25.493Z,15.40
2022-11-26T20:34:27.783Z,15.40
2022-11-26T20:38:29.404Z,15.40
2022-11-26T20:42:32.651Z,15.40
2022-11-26T20:46:34.360Z,15.40
2022-11-26T20:50:38.005Z,15.40
2022-11-26T20:54:39.688Z,15.40
2022-11-26T20:58:41.887Z,15.40
2022-11-26T21:02:47.518Z,15.40
2022-11-26T21:06:49.202Z,15.30
2022-11-26T21:10:50.945Z,15.40
2022-11-26T21:14:52.729Z,15.40
2022-11-26T21:18:55.168Z,15.40
2022-11-26T21:22:56.837Z,15.40
2022-11-26T21:26:58.475Z,15.40
2022-11-26T21:31:27.623Z,15.30
2022-11-26T21:35:29.972Z,15.40
2022-11-26T21:39:31.797Z,15.40
2022-11-26T21:43:33.573Z,15.40
2022-11-26T21:47:36.423Z,15.30
2022-11-26T21:51:38.239Z,15.30
2022-11-26T21:55:40.016Z,15.30
2022-11-26T21:59:42.009Z,15.30
2022-11-26T22:03:46.382Z,15.30
2022-11-26T22:07:48.260Z,15.30
2022-11-26T22:11:50.408Z,15.30
2022-11-26T22:15:52.220Z,15.30
2022-11-26T22:19:53.833Z,15.30
2022-11-26T22:23:56.508Z,15.30
2022-11-26T22:27:58.186Z,15.30
2022-11-26T22:31:59.852Z,15.30
2022-11-26T22:36:01.578Z,15.30
2022-11-26T22:40:03.819Z,15.30
2022-11-26T22:44:05.469Z,15.30
2022-11-26T22:48:07.090Z,15.30
2022-11-26T22:52:08.727Z,15.30
2022-11-26T22:56:10.589Z,15.30
2022-11-26T23:00:34.587Z,15.30
2022-11-26T23:04:36.202Z,15.30
2022-11-26T23:08:39.328Z,15.30
2022-11-26T23:12:40.925Z,15.30
2022-11-26T23:16:43.343Z,15.30
2022-11-26T23:20:45.101Z,15.20
2022-11-26T23:24:46.731Z,15.30
2022-11-26T23:28:48.347Z,15.30
2022-11-26T23:32:49.979Z,15.20
2022-11-26T23:36:51.746Z,15.20
2022-11-26T23:41:02.529Z,15.20
2022-11-26T23:45:04.822Z,15.20
2022-11-26T23:49:09.385Z,15.20
2022-11-26T23:53:11.017Z,15.20
2022-11-26T23:57:15.129Z,15.30
